createdAt,value
2023-02-19T20:30:00.505Z,8.40
2023-02-19T20:32:27.468Z,7.20
2023-02-19T20:34:54.394Z,8.00
2023-02-19T20:37:21.341Z,7.50
2023-02-19T20:39:55.927Z,6.60
2023-02-19T20:42:22.881Z,7.30
2023-02-19T20:44:49.696Z,6.80
2023-02-19T20:47:16.726Z,6.40
2023-02-19T20:49:46.983Z,7.10
2023-02-19T20:52:16.630Z,5.50
2023-02-19T20:54:44.478Z,6.00
2023-02-19T20:57:12.144Z,6.00
2023-02-19T20:59:40.885Z,6.80
2023-02-19T21:02:14.198Z,5.70
2023-02-19T21:04:41.213Z,6.00
2023-02-19T21:07:08.035Z,6.00
2023-02-19T21:09:34.954Z,5.40
2023-02-19T21:12:01.838Z,5.60
2023-02-19T21:14:28.623Z,6.30
2023-02-19T21:16:55.500Z,5.60
2023-02-19T21:19:22.995Z,6.50
2023-02-19T21:21:49.868Z,6.90
2023-02-19T21:24:17.260Z,5.50
2023-02-19T21:26:45.035Z,5.80
2023-02-19T21:29:19.180Z,6.40
2023-02-19T21:31:51.458Z,6.00
2023-02-19T21:34:20.476Z,6.00
2023-02-19T21:36:47.481Z,6.70
2023-02-19T21:39:17.477Z,6.30
2023-02-19T21:41:44.438Z,6.70
2023-02-19T21:44:11.454Z,7.30
2023-02-19T21:46:38.441Z,8.10
2023-02-19T21:49:05.623Z,8.30
2023-02-19T21:51:38.734Z,7.40
2023-02-19T21:54:06.800Z,8.00
2023-02-19T21:56:36.379Z,7.50
2023-02-19T21:59:03.928Z,7.10
2023-02-19T22:01:38.890Z,7.70
2023-02-19T22:04:07.514Z,7.10
2023-02-19T22:06:35.203Z,8.60
2023-02-19T22:09:02.147Z,7.60
2023-02-19T22:11:29.259Z,7.60
2023-02-19T22:13:56.351Z,8.80
2023-02-19T22:16:24.081Z,9.10
2023-02-19T22:18:54.320Z,7.90
2023-02-19T22:21:24.495Z,7.20
2023-02-19T22:23:53.397Z,7.90
2023-02-19T22:26:26.353Z,7.70
2023-02-19T22:28:53.207Z,7.10
2023-02-19T22:31:22.566Z,7.70
2023-02-19T22:33:50.172Z,6.80
2023-02-19T22:36:23.029Z,6.60
2023-02-19T22:38:50.690Z,7.20
2023-02-19T22:41:18.536Z,7.00
2023-02-19T22:43:45.756Z,6.60
2023-02-19T22:46:19.121Z,5.90
2023-02-19T22:48:46.305Z,5.20
2023-02-19T22:51:19.261Z,6.50
2023-02-19T22:53:51.678Z,6.50
2023-02-19T22:56:21.057Z,5.90
2023-02-19T22:58:48.148Z,6.90
2023-02-19T23:01:15.647Z,6.10
2023-02-19T23:03:49.056Z,5.70
2023-02-19T23:06:18.047Z,5.40
2023-02-19T23:08:45.008Z,6.30
2023-02-19T23:11:13.282Z,6.70
2023-02-19T23:13:43.028Z,7.20
2023-02-19T23:16:10.024Z,6.10
2023-02-19T23:18:37.087Z,6.90
2023-02-19T23:21:03.988Z,5.90
2023-02-19T23:23:30.810Z,5.90
2023-02-19T23:25:57.759Z,7.00
2023-02-19T23:28:24.819Z,6.80
2023-02-19T23:30:51.755Z,7.10
2023-02-19T23:33:18.598Z,7.60
2023-02-19T23:35:45.414Z,7.20
2023-02-19T23:38:12.514Z,7.20
2023-02-19T23:40:39.407Z,7.60
2023-02-19T23:43:06.318Z,8.30
2023-02-19T23:45:33.217Z,8.30
2023-02-19T23:48:00.127Z,7.70
2023-02-19T23:57:50.111Z,8.40
